Time;durP1;ratioP1;P1;durP2;ratioP2;P2;SDS_P1;SDS_P2;PMS_P1;PMS_P2;Temp;Humidity;BMP_temperature;BMP_pressure;BME280_temperature;BME280_humidity;BME280_pressure;Samples;Min_cycle;Max_cycle;Signal;HPM_P1;HPM_P2
2022/09/05 00:02:05;;;;;;;7.20;3.67;;;;;;;10.18;71.04;102678.45;1725349;81;21632;-87
2022/09/05 00:05:30;;;;;;;4.87;2.95;;;;;;;10.14;71.13;102680.00;1707092;83;21773;-88
2022/09/05 00:08:26;;;;;;;4.55;3.00;;;;;;;10.09;71.19;102673.14;1725146;81;21081;-88
2022/09/05 00:11:34;;;;;;;7.30;2.98;;;;;;;10.07;71.27;102685.30;1725279;83;21022;-88
2022/09/05 00:14:51;;;;;;;5.22;2.70;;;;;;;10.04;71.37;102680.27;1704890;83;21592;-88
2022/09/05 00:18:20;;;;;;;6.15;3.20;;;;;;;10.02;71.44;102678.89;1694679;84;21805;-86
2022/09/05 00:21:19;;;;;;;4.45;2.72;;;;;;;9.99;71.48;102677.39;1724348;83;21089;-85
2022/09/05 00:24:30;;;;;;;5.95;3.05;;;;;;;9.98;71.55;102681.23;1725269;82;21772;-86
2022/09/05 00:27:56;;;;;;;4.87;2.33;;;;;;;9.97;71.57;102680.76;1725466;83;21623;-86
2022/09/05 00:31:30;;;;;;;5.20;3.05;;;;;;;9.94;71.64;102680.15;1706853;83;21070;-88
2022/09/05 00:35:02;;;;;;;5.70;2.77;;;;;;;9.91;71.70;102677.36;1680591;84;21103;-86
2022/09/05 00:37:48;;;;;;;5.25;2.70;;;;;;;9.91;71.85;102678.67;1662105;85;22227;-86
2022/09/05 00:40:39;;;;;;;6.87;2.80;;;;;;;9.87;71.90;102677.58;1649060;85;21093;-86
2022/09/05 00:43:32;;;;;;;4.75;2.72;;;;;;;9.86;72.01;102674.86;1672740;85;21604;-86
2022/09/05 00:46:28;;;;;;;3.75;2.80;;;;;;;9.85;72.04;102671.33;1658802;85;21082;-86
2022/09/05 00:49:33;;;;;;;6.90;2.67;;;;;;;9.85;72.11;102667.77;1659641;85;21412;-86
2022/09/05 00:52:32;;;;;;;4.90;2.45;;;;;;;9.85;72.22;102670.40;1672295;85;21118;-86
2022/09/05 00:55:57;;;;;;;4.45;2.27;;;;;;;9.84;72.25;102663.34;1676278;85;21079;-86
2022/09/05 00:58:57;;;;;;;4.05;2.50;;;;;;;9.81;72.28;102666.68;1668406;84;21380;-85
2022/09/05 01:01:59;;;;;;;5.00;2.62;;;;;;;9.77;72.32;102667.32;1664890;85;21158;-86
2022/09/05 01:04:55;;;;;;;5.20;2.67;;;;;;;9.73;72.44;102664.91;1675994;85;21055;-85
2022/09/05 01:08:04;;;;;;;3.65;2.47;;;;;;;9.73;72.50;102667.55;1676853;85;21071;-85
2022/09/05 01:11:32;;;;;;;5.20;2.62;;;;;;;9.71;72.53;102672.23;1638366;85;21099;-87
2022/09/05 01:14:54;;;;;;;5.40;2.77;;;;;;;9.66;72.55;102667.99;1676386;85;21079;-86
2022/09/05 01:18:01;;;;;;;6.50;3.08;;;;;;;9.66;72.64;102665.78;1678582;85;21059;-85
2022/09/05 01:21:09;;;;;;;4.47;2.30;;;;;;;9.61;72.67;102666.84;1675884;85;21082;-85
2022/09/05 01:24:30;;;;;;;5.70;2.50;;;;;;;9.56;72.71;102661.70;1676231;85;21573;-85
2022/09/05 01:27:40;;;;;;;4.10;2.30;;;;;;;9.53;72.87;102667.70;1676225;85;21130;-86
2022/09/05 01:30:48;;;;;;;4.67;2.47;;;;;;;9.53;72.98;102665.06;1662253;85;21564;-87
2022/09/05 01:34:12;;;;;;;7.15;2.50;;;;;;;9.53;73.05;102665.45;1670340;84;21048;-86
2022/09/05 01:37:21;;;;;;;5.55;2.60;;;;;;;9.52;73.11;102671.13;1704596;83;21044;-85
2022/09/05 01:40:38;;;;;;;4.30;2.40;;;;;;;9.51;73.11;102667.98;1704637;84;21059;-85
2022/09/05 01:43:50;;;;;;;4.87;2.08;;;;;;;9.48;73.21;102669.13;1676877;83;21171;-85
2022/09/05 01:47:16;;;;;;;7.70;2.42;;;;;;;9.47;73.25;102671.25;1687693;83;21568;-86
2022/09/05 01:50:37;;;;;;;3.17;2.10;;;;;;;9.46;73.44;102661.56;1684678;84;21098;-86
2022/09/05 01:53:36;;;;;;;5.65;2.00;;;;;;;9.46;73.49;102676.02;1666753;84;21082;-84
2022/09/05 01:56:44;;;;;;;2.95;2.17;;;;;;;9.44;73.55;102675.02;1676236;85;21632;-84
2022/09/05 01:59:43;;;;;;;3.83;2.20;;;;;;;9.44;73.68;102669.77;1676343;85;21156;-84
2022/09/05 02:02:57;;;;;;;4.33;2.47;;;;;;;9.47;73.72;102680.45;1676506;84;21114;-87
2022/09/05 02:06:12;;;;;;;5.78;2.52;;;;;;;9.45;73.74;102678.55;1676729;85;21114;-85
2022/09/05 02:09:20;;;;;;;3.17;2.15;;;;;;;9.46;73.82;102674.70;1676306;84;21557;-85
2022/09/05 02:12:22;;;;;;;3.98;2.00;;;;;;;9.46;73.82;102675.09;1676521;85;21062;-85
2022/09/05 02:15:16;;;;;;;3.42;2.30;;;;;;;9.46;73.83;102676.02;1676444;85;21090;-85
2022/09/05 02:18:01;;;;;;;2.83;1.95;;;;;;;9.46;73.85;102673.39;1676441;83;21126;-85
2022/09/05 02:20:56;;;;;;;6.08;2.27;;;;;;;9.45;73.86;102675.92;1659104;83;21055;-86
2022/09/05 02:23:55;;;;;;;3.02;2.15;;;;;;;9.44;73.81;102678.03;1691223;83;21043;-87
2022/09/05 02:27:22;;;;;;;4.42;1.90;;;;;;;9.39;73.83;102677.77;1676563;84;21083;-85
2022/09/05 02:30:24;;;;;;;2.30;2.00;;;;;;;9.37;73.86;102685.08;1676473;84;21082;-84
2022/09/05 02:33:27;;;;;;;4.60;2.10;;;;;;;9.32;73.95;102678.20;1675792;83;21083;-84
2022/09/05 02:36:43;;;;;;;3.40;2.10;;;;;;;9.30;74.01;102682.47;1667490;84;21621;-84
2022/09/05 02:40:12;;;;;;;2.70;1.98;;;;;;;9.29;74.11;102685.89;1667357;86;21137;-85
2022/09/05 02:43:21;;;;;;;5.72;2.00;;;;;;;9.28;74.19;102683.68;1665830;84;21067;-86
2022/09/05 02:46:20;;;;;;;2.65;1.92;;;;;;;9.25;74.26;102678.64;1672300;84;21652;-85
2022/09/05 02:49:10;;;;;;;4.37;2.12;;;;;;;9.25;74.32;102679.57;1665324;85;21089;-85
2022/09/05 02:52:06;;;;;;;4.00;2.12;;;;;;;9.25;74.37;102682.58;1671189;83;21644;-85
2022/09/05 02:54:52;;;;;;;2.77;1.87;;;;;;;9.26;74.43;102678.73;1672990;85;21038;-85
2022/09/05 02:57:48;;;;;;;3.30;2.08;;;;;;;9.26;74.44;102681.78;1648447;86;21083;-85
2022/09/05 03:00:53;;;;;;;4.30;2.40;;;;;;;9.24;74.51;102680.37;1676989;85;21147;-85
2022/09/05 03:04:17;;;;;;;3.22;1.98;;;;;;;9.24;74.63;102672.91;1659338;86;21083;-85
2022/09/05 03:07:36;;;;;;;6.97;1.90;;;;;;;9.24;74.66;102676.43;1682528;83;21635;-85
2022/09/05 03:10:43;;;;;;;5.55;2.50;;;;;;;9.25;74.75;102668.13;1667990;86;21063;-85
2022/09/05 03:13:50;;;;;;;5.45;2.40;;;;;;;9.25;74.76;102677.33;1682666;85;21090;-85
2022/09/05 03:17:10;;;;;;;4.58;2.17;;;;;;;9.24;74.83;102680.78;1668322;86;22093;-85
2022/09/05 03:20:31;;;;;;;3.95;2.67;;;;;;;9.22;74.94;102679.38;1682404;85;21043;-86
2022/09/05 03:23:44;;;;;;;4.37;2.40;;;;;;;9.23;74.99;102682.90;1641515;85;21066;-85
2022/09/05 03:26:58;;;;;;;2.20;1.77;;;;;;;9.23;75.05;102688.16;1637550;85;21079;-85
2022/09/05 03:30:11;;;;;;;5.75;2.12;;;;;;;9.22;75.15;102685.05;1650483;86;21065;-85
2022/09/05 03:33:27;;;;;;;3.27;2.37;;;;;;;9.22;75.22;102688.98;1647615;86;21100;-85
2022/09/05 03:36:34;;;;;;;2.47;1.85;;;;;;;9.20;75.32;102682.31;1670410;85;21254;-87
2022/09/05 03:39:39;;;;;;;4.37;2.20;;;;;;;9.23;75.44;102689.47;1692631;83;21601;-86
2022/09/05 03:42:44;;;;;;;6.12;2.55;;;;;;;9.23;75.51;102696.94;1665224;85;21072;-87
2022/09/05 03:46:15;;;;;;;4.05;2.15;;;;;;;9.22;75.53;102695.14;1683786;84;21148;-86
2022/09/05 03:49:09;;;;;;;6.53;2.20;;;;;;;9.24;75.61;102695.23;1678418;84;21133;-87
2022/09/05 03:52:17;;;;;;;4.12;1.98;;;;;;;9.26;75.74;102690.98;1684216;84;21096;-87
2022/09/05 03:55:40;;;;;;;3.85;2.08;;;;;;;9.27;75.79;102695.02;1676132;85;21072;-86
2022/09/05 03:59:10;;;;;;;3.65;2.20;;;;;;;9.30;75.81;102698.23;1677791;84;21088;-86
2022/09/05 04:02:01;;;;;;;3.85;2.33;;;;;;;9.31;75.87;102694.81;1675133;84;21144;-88
2022/09/05 04:05:14;;;;;;;2.90;2.30;;;;;;;9.32;75.95;102697.92;1676051;84;21065;-90
2022/09/05 04:08:22;;;;;;;4.67;2.65;;;;;;;9.52;76.54;102694.78;1700331;84;21095;-90
2022/09/05 04:11:12;;;;;;;3.98;2.37;;;;;;;9.95;76.48;102703.41;1686902;84;21124;-90
2022/09/05 04:14:04;;;;;;;3.33;2.37;;;;;;;9.95;75.57;102696.83;1675488;85;21073;-88
2022/09/05 04:16:55;;;;;;;4.22;2.20;;;;;;;9.85;75.36;102699.33;1676350;84;21464;-86
2022/09/05 04:19:47;;;;;;;3.75;2.22;;;;;;;9.78;75.38;102697.15;1695330;83;21673;-88
2022/09/05 04:22:57;;;;;;;3.20;2.08;;;;;;;9.76;75.41;102696.16;1666230;84;21096;-92
2022/09/05 04:26:13;;;;;;;4.67;2.40;;;;;;;9.73;75.41;102693.84;1675154;83;21097;-83
2022/09/05 04:29:18;;;;;;;4.15;2.75;;;;;;;9.72;75.37;102690.73;1701261;83;21081;-83
2022/09/05 04:32:30;;;;;;;7.12;2.80;;;;;;;9.73;75.42;102698.20;1688900;83;21784;-83
2022/09/05 04:35:41;;;;;;;4.40;2.87;;;;;;;9.76;75.41;102698.40;1698488;83;21084;-84
2022/09/05 04:38:41;;;;;;;6.65;2.85;;;;;;;9.85;75.54;102695.00;1704310;83;21511;-90
2022/09/05 04:41:26;;;;;;;5.00;2.72;;;;;;;10.88;77.43;102700.86;1684667;84;21148;-90
2022/09/05 04:44:17;;;;;;;6.10;2.92;;;;;;;12.65;77.35;102694.55;1670284;83;21078;-89
2022/09/05 04:47:09;;;;;;;4.45;2.37;;;;;;;14.55;76.10;102684.75;1713991;83;21071;-87
2022/09/05 04:50:11;;;;;;;5.83;3.00;;;;;;;16.40;73.98;102682.09;1706925;83;21572;-87
2022/09/05 04:53:53;;;;;;;4.08;2.50;;;;;;;17.77;71.26;102681.20;1695156;83;21113;-88
2022/09/05 04:56:43;;;;;;;7.70;2.80;;;;;;;19.07;69.49;102683.44;1696841;83;21585;-88
2022/09/05 04:59:40;;;;;;;8.18;2.22;;;;;;;20.46;66.40;102701.95;1677080;83;21066;-87
2022/09/05 05:02:46;;;;;;;4.95;2.98;;;;;;;21.06;63.98;102711.77;1691196;83;21086;-89
2022/09/05 05:05:51;;;;;;;3.62;2.60;;;;;;;20.83;62.37;102717.24;1613815;86;21148;-87
2022/09/05 05:08:49;;;;;;;3.55;2.52;;;;;;;20.08;60.09;102726.30;1620543;87;21142;-90
2022/09/05 05:12:01;;;;;;;4.03;2.52;;;;;;;18.91;59.22;102721.33;1620235;86;21882;-86
2022/09/05 05:14:53;;;;;;;4.35;2.52;;;;;;;17.86;59.50;102717.00;1601104;88;21061;-88
2022/09/05 05:17:52;;;;;;;3.72;2.45;;;;;;;17.21;60.07;102730.27;1594988;88;21155;-88
2022/09/05 05:21:06;;;;;;;4.92;2.50;;;;;;;16.67;60.22;102723.28;1582910;90;21119;-88
2022/09/05 05:24:09;;;;;;;5.05;2.62;;;;;;;16.24;61.08;102733.86;1628481;87;21437;-91
2022/09/05 05:27:35;;;;;;;6.72;3.72;;;;;;;15.98;61.26;102736.95;1587894;89;21076;-92
2022/09/05 05:30:27;;;;;;;5.60;2.62;;;;;;;15.75;61.67;102736.16;1621436;87;21111;-89
2022/09/05 05:37:28;;;;;;;3.55;2.62;;;;;;;15.31;62.43;102741.59;1500724;93;21202;-87
2022/09/05 05:40:26;;;;;;;9.80;3.50;;;;;;;15.12;62.73;102727.17;1496229;94;21204;-87
2022/09/05 05:43:31;;;;;;;4.58;2.95;;;;;;;14.94;63.03;102730.02;1495908;94;21312;-88
2022/09/05 05:46:31;;;;;;;3.52;2.85;;;;;;;14.86;63.30;102736.34;1486890;94;21221;-93
2022/09/05 05:50:01;;;;;;;8.18;3.65;;;;;;;14.69;63.22;102733.47;1459302;96;21175;-89
2022/09/05 05:53:10;;;;;;;8.68;4.00;;;;;;;14.52;63.49;102747.33;1497118;94;21106;-91
2022/09/05 05:56:34;;;;;;;7.22;4.33;;;;;;;14.38;63.67;102740.16;1476581;97;21698;-89
2022/09/05 05:59:57;;;;;;;7.83;3.35;;;;;;;14.39;64.15;102745.91;1477369;96;21117;-87
2022/09/05 06:03:18;;;;;;;6.40;3.72;;;;;;;14.42;64.20;102742.51;1501440;94;21146;-87
2022/09/05 06:06:51;;;;;;;6.95;3.60;;;;;;;14.41;64.48;102745.55;1467665;95;21666;-89
2022/09/05 06:10:06;;;;;;;8.13;3.45;;;;;;;14.47;64.61;102746.23;1496443;93;21172;-89
2022/09/05 06:13:38;;;;;;;16.25;3.83;;;;;;;14.44;64.67;102750.99;1481665;94;21178;-87
2022/09/05 06:16:52;;;;;;;15.13;4.15;;;;;;;14.58;64.92;102752.50;1513176;93;21945;-90
2022/09/05 06:20:08;;;;;;;9.35;3.75;;;;;;;14.67;64.78;102749.73;1520989;93;29044;-88
2022/09/05 06:23:46;;;;;;;13.10;3.60;;;;;;;14.73;64.79;102748.24;1513812;93;21189;-88
2022/09/05 06:27:00;;;;;;;8.40;3.90;;;;;;;14.83;64.68;102755.20;1504929;93;21704;-88
2022/09/05 06:30:13;;;;;;;24.30;4.90;;;;;;;14.81;64.80;102753.84;1516018;92;21132;-87
2022/09/05 06:33:19;;;;;;;10.95;3.72;;;;;;;14.85;64.90;102758.42;1465288;96;21898;-87
2022/09/05 06:36:23;;;;;;;15.05;4.05;;;;;;;14.94;65.05;102762.77;1470362;94;21189;-87
2022/09/05 06:39:22;;;;;;;13.25;4.83;;;;;;;15.02;64.97;102763.48;1482481;94;21192;-87
2022/09/05 06:42:27;;;;;;;11.15;3.35;;;;;;;15.03;65.10;102761.30;1482156;95;21150;-87
2022/09/05 06:45:35;;;;;;;9.58;3.55;;;;;;;15.08;65.16;102761.06;1477784;94;21651;-87
2022/09/05 06:48:36;;;;;;;12.45;3.60;;;;;;;15.11;65.15;102765.17;1593755;84;21088;-87
2022/09/05 06:51:44;;;;;;;9.23;3.45;;;;;;;15.19;65.41;102765.03;1591696;88;21113;-89
2022/09/05 06:54:46;;;;;;;12.28;3.55;;;;;;;15.26;65.43;102767.08;1609930;87;21624;-87
2022/09/05 06:58:00;;;;;;;8.23;4.10;;;;;;;15.39;65.39;102766.20;1616269;88;21668;-89
2022/09/05 07:00:51;;;;;;;12.98;4.28;;;;;;;15.46;65.51;102769.56;1625527;87;21871;-88
2022/09/05 07:04:12;;;;;;;10.35;3.90;;;;;;;15.66;65.67;102769.88;1606776;88;21122;-92
2022/09/05 07:07:26;;;;;;;9.08;4.58;;;;;;;15.79;65.34;102771.70;1595381;88;21124;-90
2022/09/05 07:12:49;;;;;;;8.05;3.55;;;;;;;15.92;64.98;102775.27;1615379;88;21181;-90
2022/09/05 07:15:46;;;;;;;5.50;3.72;;;;;;;16.03;64.88;102781.86;1636744;86;21164;-90
2022/09/05 07:18:55;;;;;;;9.48;4.37;;;;;;;16.16;64.78;102779.20;1634843;86;21821;-89
2022/09/05 07:22:17;;;;;;;4.95;2.90;;;;;;;16.19;64.47;102772.64;1656064;86;22118;-89
2022/09/05 07:25:07;;;;;;;12.93;3.22;;;;;;;16.30;64.20;102779.23;1676167;85;21658;-90
2022/09/05 07:27:58;;;;;;;2.45;2.20;;;;;;;16.42;63.89;102784.48;1664547;85;21136;-89
2022/09/05 07:30:55;;;;;;;5.03;2.20;;;;;;;16.52;63.70;102781.30;1674985;85;21142;-90
2022/09/05 07:33:43;;;;;;;4.92;2.87;;;;;;;16.63;63.60;102785.20;1676136;83;21062;-90
2022/09/05 07:36:33;;;;;;;6.00;3.05;;;;;;;16.77;63.71;102793.61;1651708;86;49079;-90
2022/09/05 07:39:23;;;;;;;18.90;4.60;;;;;;;16.85;63.39;102791.23;1664525;83;21086;-90
2022/09/05 07:42:17;;;;;;;10.15;3.60;;;;;;;16.92;63.34;102795.00;1678075;83;21118;-90
2022/09/05 07:45:09;;;;;;;16.07;5.42;;;;;;;17.06;63.17;102796.31;1676694;83;21716;-92
2022/09/05 07:48:07;;;;;;;10.85;4.00;;;;;;;17.08;62.89;102800.84;1681250;83;21749;-90
2022/09/05 07:50:57;;;;;;;10.35;3.50;;;;;;;17.23;62.94;102799.09;1700450;83;21129;-89
2022/09/05 07:53:42;;;;;;;7.20;3.67;;;;;;;17.33;62.46;102799.37;1697232;83;21070;-89
2022/09/05 07:56:53;;;;;;;9.48;2.70;;;;;;;17.40;62.41;102798.26;1687076;83;21058;-90
2022/09/05 07:59:39;;;;;;;4.97;2.55;;;;;;;17.55;61.82;102803.13;1673065;83;21110;-90
2022/09/05 08:02:24;;;;;;;9.35;3.12;;;;;;;17.55;61.25;102808.45;1693500;83;21817;-89
2022/09/05 08:05:11;;;;;;;6.28;3.17;;;;;;;17.58;61.11;102809.86;1687431;83;21297;-90
2022/09/05 08:07:57;;;;;;;5.75;3.33;;;;;;;17.65;60.79;102810.52;1656460;83;21054;-90
2022/09/05 08:10:47;;;;;;;8.95;4.28;;;;;;;17.67;60.88;102809.23;1687983;83;21086;-90
2022/09/05 08:13:50;;;;;;;18.87;5.08;;;;;;;17.77;60.95;102807.72;1699906;83;21717;-89
2022/09/05 08:16:35;;;;;;;16.05;4.87;;;;;;;17.99;61.07;102801.27;1671108;85;21604;-89
2022/09/05 08:19:55;;;;;;;12.53;4.15;;;;;;;18.16;60.84;102799.05;1641427;85;21670;-89
2022/09/05 08:23:07;;;;;;;9.38;3.72;;;;;;;18.28;60.74;102799.80;1686475;83;21623;-89
2022/09/05 08:26:21;;;;;;;7.25;3.55;;;;;;;18.37;60.04;102799.59;1680558;85;21055;-90
2022/09/05 08:29:30;;;;;;;5.95;2.52;;;;;;;18.39;59.88;102797.90;1699876;83;21047;-90
2022/09/05 08:32:45;;;;;;;10.03;3.20;;;;;;;18.42;59.31;102796.63;1654931;85;21081;-89
2022/09/05 08:35:47;;;;;;;5.85;2.08;;;;;;;18.53;59.17;102794.67;1680504;85;21097;-89
2022/09/05 08:38:33;;;;;;;8.78;2.87;;;;;;;18.52;58.43;102790.19;1641379;86;21160;-89
2022/09/05 08:41:49;;;;;;;4.20;1.60;;;;;;;18.60;58.46;102790.86;1660770;85;21086;-88
2022/09/05 08:45:11;;;;;;;4.80;1.70;;;;;;;18.69;58.19;102796.82;1712681;83;21052;-90
2022/09/05 08:48:16;;;;;;;6.45;1.50;;;;;;;18.83;57.61;102787.42;1710772;83;21624;-90
2022/09/05 08:51:09;;;;;;;6.95;1.50;;;;;;;19.08;57.16;102789.31;1714859;83;21102;-90
2022/09/05 08:54:29;;;;;;;5.75;1.00;;;;;;;19.20;56.13;102784.67;1721326;82;21079;-90
2022/09/05 08:58:03;;;;;;;3.10;1.00;;;;;;;19.27;56.03;102788.39;1712336;83;21033;-88
2022/09/05 09:00:55;;;;;;;4.80;1.00;;;;;;;19.43;55.81;102780.73;1726800;82;21052;-87
2022/09/05 09:04:08;;;;;;;1.57;1.02;;;;;;;19.54;55.19;102780.04;1690247;83;21552;-87
2022/09/05 09:07:26;;;;;;;2.22;0.85;;;;;;;19.47;54.75;102778.14;1716275;82;21048;-87
2022/09/05 09:10:37;;;;;;;1.90;0.90;;;;;;;19.45;54.62;102775.43;1735346;82;21080;-87
2022/09/05 09:14:15;;;;;;;2.42;1.85;;;;;;;19.44;54.21;102776.28;1726204;82;21570;-91
2022/09/05 09:17:27;;;;;;;4.08;1.80;;;;;;;19.38;54.14;102782.84;1717153;82;21511;-90
2022/09/05 09:20:36;;;;;;;5.78;1.30;;;;;;;19.35;53.92;102777.02;1682440;82;21819;-90
2022/09/05 09:23:52;;;;;;;7.62;1.70;;;;;;;19.43;54.16;102778.51;1724766;82;21009;-90
2022/09/05 09:26:41;;;;;;;5.10;1.20;;;;;;;19.71;54.09;102779.07;1719906;82;21514;-89
2022/09/05 09:29:27;;;;;;;1.65;1.00;;;;;;;19.81;53.78;102777.95;1735135;82;21284;-92
2022/09/05 09:32:16;;;;;;;4.35;0.90;;;;;;;19.86;53.11;102771.38;1718944;82;21057;-93
2022/09/05 09:35:28;;;;;;;4.30;0.85;;;;;;;19.88;53.13;102775.42;1705946;83;21013;-90
2022/09/05 09:38:34;;;;;;;1.82;0.82;;;;;;;19.84;53.24;102775.80;1682673;85;21059;-89
2022/09/05 09:41:54;;;;;;;10.23;8.35;;;;;;;20.02;53.15;102766.30;1618501;88;21098;-92
2022/09/05 09:45:14;;;;;;;2.22;1.10;;;;;;;20.05;52.09;102740.98;1621639;87;21818;-91
2022/09/05 09:48:37;;;;;;;5.53;0.93;;;;;;;20.15;51.95;102766.54;1668471;85;21158;-93
2022/09/05 09:51:45;;;;;;;4.92;1.20;;;;;;;20.15;51.95;102766.54;1681494;85;21097;-90
2022/09/05 09:54:56;;;;;;;2.83;0.85;;;;;;;20.29;51.69;102763.20;1681281;85;21117;-87
2022/09/05 09:58:06;;;;;;;1.55;0.95;;;;;;;20.45;51.53;102763.03;1662240;85;21118;-89
2022/09/05 10:01:24;;;;;;;3.70;0.75;;;;;;;20.48;51.22;102767.99;1646000;86;21632;-87
2022/09/05 10:04:25;;;;;;;3.58;0.70;;;;;;;20.49;50.99;102752.83;1645316;86;21175;-88
2022/09/05 10:07:49;;;;;;;1.02;0.70;;;;;;;20.49;50.99;102752.83;1656179;86;21113;-87
2022/09/05 10:10:54;;;;;;;1.20;0.90;;;;;;;20.39;50.18;102759.81;1648693;86;21126;-87
2022/09/05 10:14:20;;;;;;;1.05;0.60;;;;;;;20.42;50.14;102762.55;1691011;83;21757;-87
2022/09/05 10:17:10;;;;;;;0.93;0.47;;;;;;;20.53;49.76;102761.36;1674363;85;21724;-87
2022/09/05 10:20:29;;;;;;;0.55;0.50;;;;;;;20.42;48.80;102753.19;1675709;84;21172;-88
2022/09/05 10:23:32;;;;;;;2.35;0.70;;;;;;;20.20;48.46;102744.80;1681998;83;21501;-87
2022/09/05 10:26:39;;;;;;;1.20;0.70;;;;;;;20.13;48.26;102741.55;1676437;84;21148;-88
2022/09/05 10:29:47;;;;;;;2.42;0.68;;;;;;;20.13;48.26;102741.55;1667246;84;21357;-87
2022/09/05 10:33:04;;;;;;;1.50;0.72;;;;;;;20.12;48.28;102750.47;1671039;84;21078;-87
2022/09/05 10:35:50;;;;;;;0.90;0.72;;;;;;;20.06;48.21;102732.95;1678855;84;21106;-90
2022/09/05 10:38:39;;;;;;;1.92;0.30;;;;;;;20.37;47.76;102743.73;1661443;85;21114;-87
2022/09/05 10:41:29;;;;;;;5.50;0.85;;;;;;;20.37;47.76;102743.73;1729356;82;21050;-92
2022/09/05 10:44:15;;;;;;;5.40;1.17;;;;;;;20.31;46.97;102742.72;1728607;82;21084;-87
2022/09/05 10:47:43;;;;;;;1.37;0.80;;;;;;;20.31;46.97;102742.72;1716727;83;21052;-87
2022/09/05 10:50:33;;;;;;;0.40;0.28;;;;;;;20.04;46.59;102732.48;1730388;82;21614;-88
2022/09/05 10:53:40;;;;;;;1.70;0.47;;;;;;;19.90;46.53;102742.48;1725337;82;21088;-90
2022/09/05 10:56:33;;;;;;;0.95;0.70;;;;;;;19.47;46.40;102733.62;1719812;82;21827;-88
2022/09/05 10:59:31;;;;;;;8.40;0.68;;;;;;;19.22;46.84;102747.81;1720800;82;21036;-87
2022/09/05 11:02:24;;;;;;;2.77;0.50;;;;;;;19.07;47.14;102740.82;1724580;81;21060;-87
2022/09/05 11:05:23;;;;;;;0.88;0.85;;;;;;;18.86;46.94;102740.33;1692860;82;21142;-87
2022/09/05 11:08:40;;;;;;;3.92;3.27;;;;;;;18.77;47.09;102737.91;1722937;82;21092;-87
2022/09/05 11:11:26;;;;;;;4.08;1.82;;;;;;;18.68;47.26;102737.69;1716120;82;21051;-88
2022/09/05 11:14:52;;;;;;;3.05;0.90;;;;;;;18.71;47.46;102745.73;1719301;82;21121;-87
2022/09/05 11:17:45;;;;;;;0.70;0.70;;;;;;;18.64;47.27;102735.82;1712963;83;21051;-89
2022/09/05 11:21:02;;;;;;;0.95;0.72;;;;;;;18.54;47.21;102747.12;1708318;83;21056;-88
2022/09/05 11:23:52;;;;;;;1.95;0.88;;;;;;;18.36;47.57;102741.81;1719066;82;21699;-88
2022/09/05 11:26:56;;;;;;;0.72;0.60;;;;;;;18.24;47.70;102741.09;1706749;83;22403;-89
2022/09/05 11:29:48;;;;;;;4.30;0.62;;;;;;;18.19;47.99;102733.41;1713847;82;21340;-87
2022/09/05 11:33:08;;;;;;;0.50;0.50;;;;;;;18.20;48.12;102738.30;1709355;83;21500;-87
2022/09/05 11:36:03;;;;;;;0.75;0.50;;;;;;;18.14;47.68;102734.15;1717923;82;21602;-91
2022/09/05 11:39:18;;;;;;;2.67;0.55;;;;;;;18.00;48.03;102735.11;1711420;82;21837;-90
2022/09/05 11:42:49;;;;;;;1.45;0.93;;;;;;;17.99;48.30;102731.98;1711338;83;21153;-90
2022/09/05 11:46:25;;;;;;;0.55;0.37;;;;;;;17.99;48.66;102731.55;1703623;83;21048;-91
2022/09/05 11:49:41;;;;;;;1.07;0.53;;;;;;;18.03;48.47;102720.54;1697683;84;21067;-91
2022/09/05 11:52:47;;;;;;;2.90;0.85;;;;;;;17.95;48.44;102719.45;1682474;85;21090;-90
2022/09/05 11:56:20;;;;;;;6.58;0.90;;;;;;;17.85;48.28;102711.66;1670122;85;21576;-91
2022/09/05 11:59:31;;;;;;;8.88;1.22;;;;;;;17.81;48.67;102714.63;1607987;87;21147;-90
2022/09/05 12:02:58;;;;;;;0.98;0.50;;;;;;;17.80;48.54;102719.47;1607423;87;21678;-90
2022/09/05 12:06:07;;;;;;;7.10;0.75;;;;;;;17.73;48.76;102713.95;1603225;87;21696;-91
2022/09/05 12:09:10;;;;;;;0.60;0.50;;;;;;;17.67;48.92;102711.58;1602889;88;21167;-91
2022/09/05 12:12:25;;;;;;;1.15;0.57;;;;;;;17.67;48.74;102712.02;1630654;87;21078;-90
2022/09/05 12:15:32;;;;;;;2.22;0.60;;;;;;;17.74;48.71;102705.11;1616104;87;21090;-90
2022/09/05 12:18:44;;;;;;;0.80;0.80;;;;;;;17.91;48.80;102716.25;1562326;90;21159;-90
2022/09/05 12:21:52;;;;;;;2.33;0.50;;;;;;;18.02;48.34;102702.77;1604305;89;21157;-90
2022/09/05 12:25:14;;;;;;;1.02;0.53;;;;;;;18.05;48.06;102683.73;1570574;90;22148;-89
2022/09/05 12:28:06;;;;;;;1.22;0.65;;;;;;;18.30;47.90;102701.69;1585554;87;21917;-93
2022/09/05 12:30:55;;;;;;;0.70;0.55;;;;;;;18.35;47.77;102697.34;1640679;86;21090;-91
2022/09/05 12:33:46;;;;;;;1.42;0.60;;;;;;;18.45;47.53;102695.82;1614798;87;22025;-90
2022/09/05 12:36:49;;;;;;;0.37;0.28;;;;;;;18.42;47.08;102691.73;1693259;83;21022;-91
2022/09/05 12:40:08;;;;;;;1.12;0.45;;;;;;;18.38;47.01;102691.20;1644066;85;21061;-90
2022/09/05 12:43:04;;;;;;;0.50;0.50;;;;;;;18.28;46.97;102687.83;1656845;86;21197;-93
2022/09/05 12:45:56;;;;;;;6.20;0.62;;;;;;;18.16;46.92;102690.66;1656858;86;21662;-91
2022/09/05 12:49:00;;;;;;;0.30;0.30;;;;;;;18.10;47.05;102690.97;1656599;86;21383;-91
2022/09/05 12:51:57;;;;;;;0.97;0.93;;;;;;;18.03;46.95;102696.12;1675922;83;21528;-93
2022/09/05 12:54:53;;;;;;;1.27;0.53;;;;;;;17.97;46.96;102685.31;1656711;86;21751;-90
2022/09/05 12:57:59;;;;;;;2.37;0.72;;;;;;;17.98;47.28;102681.80;1674558;85;21114;-90
2022/09/05 13:00:45;;;;;;;0.80;0.33;;;;;;;17.95;47.01;102686.15;1681437;85;21035;-87
2022/09/05 13:04:15;;;;;;;;;;;;;;;;;;;;;
2022/09/05 13:06:44;;;;;;;1.15;0.55;;;;;;;17.96;47.52;102677.27;1597248;88;21768;-89
2022/09/05 13:09:44;;;;;;;4.28;0.53;;;;;;;17.97;47.45;102674.66;1613360;88;21138;-88
2022/09/05 13:12:57;;;;;;;1.30;0.80;;;;;;;17.96;47.42;102681.27;1602244;88;21106;-89
2022/09/05 13:15:47;;;;;;;2.72;2.47;;;;;;;17.88;47.40;102677.08;1595118;88;21185;-88
2022/09/05 13:18:39;;;;;;;1.10;0.90;;;;;;;17.80;47.41;102676.85;1585953;88;21110;-89
2022/09/05 13:21:25;;;;;;;1.05;0.70;;;;;;;17.77;47.58;102682.09;1609912;88;21149;-87
2022/09/05 13:24:20;;;;;;;2.10;1.90;;;;;;;17.71;47.69;102671.73;1605694;88;21368;-88
2022/09/05 13:27:17;;;;;;;0.40;0.40;;;;;;;17.75;47.81;102666.95;1609199;88;21113;-88
2022/09/05 13:30:09;;;;;;;0.85;0.60;;;;;;;17.81;47.85;102666.69;1596960;88;21097;-88
2022/09/05 13:32:57;;;;;;;1.12;0.40;;;;;;;17.87;47.73;102667.31;1603313;88;21673;-88
2022/09/05 13:36:02;;;;;;;0.93;0.45;;;;;;;17.87;47.51;102674.86;1585798;89;21158;-88
2022/09/05 13:38:58;;;;;;;0.53;0.37;;;;;;;17.86;47.39;102673.04;1582050;90;21742;-87
2022/09/05 13:41:50;;;;;;;0.40;0.33;;;;;;;17.83;47.65;102676.02;1593320;88;21122;-87
2022/09/05 13:44:45;;;;;;;3.33;0.98;;;;;;;17.80;47.78;102675.52;1651787;85;21071;-89
2022/09/05 13:47:56;;;;;;;0.53;0.47;;;;;;;17.72;47.89;102680.17;1670963;84;21112;-89
2022/09/05 13:50:49;;;;;;;0.85;0.60;;;;;;;17.65;47.99;102676.02;1664367;86;21107;-89
2022/09/05 13:53:52;;;;;;;1.65;0.95;;;;;;;17.65;48.18;102676.02;1657104;86;22230;-88
2022/09/05 13:56:42;;;;;;;0.80;0.62;;;;;;;17.67;48.19;102678.29;1654370;86;21095;-91
2022/09/05 13:59:28;;;;;;;0.60;0.57;;;;;;;17.71;48.15;102671.28;1654926;86;21561;-90
2022/09/05 14:02:57;;;;;;;1.12;0.47;;;;;;;17.72;48.14;102670.84;1657421;85;21058;-89
2022/09/05 14:06:07;;;;;;;0.55;0.35;;;;;;;17.70;48.08;102677.49;1676842;85;21071;-89
2022/09/05 14:09:32;;;;;;;1.37;0.60;;;;;;;17.59;48.18;102673.20;1657276;86;21307;-90
2022/09/05 14:12:43;;;;;;;0.82;0.53;;;;;;;17.55;48.31;102674.39;1663033;85;21859;-89
2022/09/05 14:15:51;;;;;;;0.62;0.60;;;;;;;17.54;48.54;102672.17;1669198;85;21064;-88
2022/09/05 14:21:49;;;;;;;0.30;0.30;;;;;;;17.62;48.81;102667.05;1674280;85;21178;-89
2022/09/05 14:24:43;;;;;;;1.50;0.60;;;;;;;17.80;48.78;102667.97;1681589;85;21642;-90
2022/09/05 14:27:27;;;;;;;1.75;0.62;;;;;;;17.89;48.73;102657.59;1659012;84;21118;-88
2022/09/05 14:29:56;;;;;;;1.22;0.40;;;;;;;18.00;48.57;102654.77;1665892;85;21050;-89
2022/09/05 14:32:42;;;;;;;0.55;0.47;;;;;;;18.02;48.48;102653.47;1683768;83;21083;-88
2022/09/05 14:35:31;;;;;;;0.60;0.50;;;;;;;18.02;48.52;102654.36;1639560;86;21150;-90
2022/09/05 14:38:21;;;;;;;1.35;0.45;;;;;;;18.08;48.14;102653.61;1669904;85;21118;-90